createdAt,value
2022-07-26T00:00:22.601Z,19.00
2022-07-26T00:02:54.675Z,19.00
2022-07-26T00:05:23.399Z,19.00
2022-07-26T00:08:10.699Z,19.00
2022-07-26T00:10:42.462Z,19.00
2022-07-26T00:13:12.476Z,18.90
2022-07-26T00:15:41.233Z,18.90
2022-07-26T00:18:12.641Z,19.00
2022-07-26T00:20:42.268Z,19.00
2022-07-26T00:23:11.682Z,18.90
2022-07-26T00:25:40.731Z,18.90
2022-07-26T00:28:13.367Z,18.90
2022-07-26T00:30:42.430Z,18.80
2022-07-26T00:33:13.451Z,18.80
2022-07-26T00:35:42.421Z,18.80
2022-07-26T00:38:11.315Z,18.70
2022-07-26T00:40:39.904Z,18.70
2022-07-26T00:43:09.383Z,18.60
2022-07-26T00:45:37.947Z,18.70
2022-07-26T00:48:07.978Z,18.70
2022-07-26T00:50:38.055Z,18.60
2022-07-26T00:53:07.453Z,18.50
2022-07-26T00:55:36.177Z,18.40
2022-07-26T00:58:06.508Z,18.40
2022-07-26T01:00:35.158Z,18.40
2022-07-26T01:03:04.046Z,18.40
2022-07-26T01:05:34.079Z,18.40
2022-07-26T01:08:04.302Z,18.30
2022-07-26T01:10:33.144Z,18.20
2022-07-26T01:13:02.038Z,18.20
2022-07-26T01:15:30.562Z,18.20
2022-07-26T01:17:59.046Z,18.20
2022-07-26T01:20:27.636Z,18.10
2022-07-26T01:22:57.586Z,18.20
2022-07-26T01:25:43.526Z,18.20
2022-07-26T01:28:19.649Z,18.20
2022-07-26T01:31:14.259Z,18.20
2022-07-26T01:33:43.208Z,18.20
2022-07-26T01:36:12.474Z,18.20
2022-07-26T01:39:02.767Z,18.20
2022-07-26T01:41:38.349Z,18.10
2022-07-26T01:44:08.564Z,18.10
2022-07-26T01:46:37.969Z,18.10
2022-07-26T01:49:09.224Z,18.10
2022-07-26T01:51:38.128Z,18.00
2022-07-26T01:54:10.827Z,17.90
2022-07-26T01:56:39.703Z,17.90
2022-07-26T01:59:34.387Z,18.00
2022-07-26T02:02:04.089Z,18.10
2022-07-26T02:04:51.067Z,18.00
2022-07-26T02:07:20.070Z,17.90
2022-07-26T02:09:50.180Z,17.90
2022-07-26T02:12:18.778Z,17.80
2022-07-26T02:14:47.304Z,17.70
2022-07-26T02:17:16.077Z,17.70
2022-07-26T02:19:45.079Z,17.70
2022-07-26T02:22:13.825Z,17.60
2022-07-26T02:24:42.482Z,17.60
2022-07-26T02:27:12.397Z,17.50
2022-07-26T02:29:41.087Z,17.60
2022-07-26T02:32:11.118Z,17.60
2022-07-26T02:34:39.700Z,17.60
2022-07-26T02:37:08.649Z,17.60
2022-07-26T02:39:37.387Z,17.50
2022-07-26T02:42:06.188Z,17.60
2022-07-26T02:44:57.692Z,17.50
2022-07-26T02:47:26.273Z,17.50
2022-07-26T02:49:54.784Z,17.50
2022-07-26T02:52:23.324Z,17.50
2022-07-26T02:54:51.953Z,17.60
2022-07-26T02:57:20.490Z,17.70
2022-07-26T02:59:48.998Z,17.70
2022-07-26T03:02:18.904Z,17.70
2022-07-26T03:04:47.388Z,17.80
2022-07-26T03:07:15.882Z,17.80
2022-07-26T03:09:44.478Z,17.80
2022-07-26T03:12:13.137Z,17.90
2022-07-26T03:14:41.596Z,17.90
2022-07-26T03:17:10.170Z,17.80
2022-07-26T03:19:49.288Z,17.80
2022-07-26T03:22:18.033Z,17.80
2022-07-26T03:24:46.557Z,17.70
2022-07-26T03:27:15.646Z,17.80
2022-07-26T03:29:44.210Z,17.70
2022-07-26T03:32:13.143Z,17.70
2022-07-26T03:34:43.806Z,17.80
2022-07-26T03:37:12.419Z,17.80
2022-07-26T03:40:16.176Z,17.90
2022-07-26T03:42:45.314Z,17.80
2022-07-26T03:45:44.637Z,17.80
2022-07-26T03:48:13.274Z,17.70
2022-07-26T03:50:43.389Z,17.70
2022-07-26T03:53:12.102Z,17.80
2022-07-26T03:55:58.421Z,17.90
2022-07-26T03:58:26.954Z,18.00
2022-07-26T04:00:55.718Z,18.00
2022-07-26T04:03:25.424Z,18.10
2022-07-26T04:05:56.085Z,18.20
2022-07-26T04:08:24.714Z,18.30
2022-07-26T04:10:53.367Z,18.30
2022-07-26T04:13:24.007Z,18.40
2022-07-26T04:15:52.718Z,18.40
2022-07-26T04:18:21.802Z,18.50
2022-07-26T04:20:54.693Z,18.50
2022-07-26T04:23:23.433Z,18.60
2022-07-26T04:25:52.129Z,18.60
2022-07-26T04:28:20.937Z,18.80
2022-07-26T04:30:49.537Z,18.90
2022-07-26T04:33:18.475Z,19.00
2022-07-26T04:35:47.263Z,19.10
2022-07-26T04:38:17.791Z,19.20
2022-07-26T04:40:46.523Z,19.40
2022-07-26T04:43:16.198Z,19.50
2022-07-26T04:45:46.142Z,19.70
2022-07-26T04:48:15.725Z,19.80
2022-07-26T04:50:45.676Z,19.90
2022-07-26T04:53:16.234Z,20.00
2022-07-26T04:55:45.140Z,20.20
2022-07-26T04:58:14.041Z,20.30
2022-07-26T05:01:08.506Z,20.50
2022-07-26T05:03:31.397Z,20.70
2022-07-26T05:05:59.969Z,20.90
2022-07-26T05:08:30.012Z,21.00
2022-07-26T05:10:58.534Z,21.20
2022-07-26T05:13:30.725Z,21.30
2022-07-26T05:16:01.650Z,21.50
2022-07-26T05:18:45.558Z,21.60
2022-07-26T05:21:17.798Z,21.80
2022-07-26T05:23:48.142Z,22.00
2022-07-26T05:26:16.875Z,22.10
2022-07-26T05:28:45.524Z,22.20
2022-07-26T05:31:14.126Z,22.40
2022-07-26T05:33:42.896Z,22.50
2022-07-26T05:36:11.708Z,22.70
2022-07-26T05:38:40.508Z,22.80
2022-07-26T05:41:10.852Z,22.90
2022-07-26T05:43:41.610Z,23.00
2022-07-26T05:46:12.593Z,23.20
2022-07-26T05:48:41.818Z,23.30
2022-07-26T05:51:10.801Z,23.40
2022-07-26T05:53:40.109Z,23.60
2022-07-26T05:56:10.379Z,23.60
2022-07-26T05:58:38.997Z,23.80
2022-07-26T06:01:07.863Z,23.90
2022-07-26T06:03:36.509Z,23.80
2022-07-26T06:06:05.269Z,23.90
2022-07-26T06:08:34.530Z,24.00
2022-07-26T06:11:03.189Z,24.00
2022-07-26T06:13:33.083Z,24.20
2022-07-26T06:16:02.879Z,24.40
2022-07-26T06:18:31.409Z,24.60
2022-07-26T06:21:02.439Z,24.70
2022-07-26T06:23:56.225Z,24.80
2022-07-26T06:26:25.269Z,25.00
2022-07-26T06:28:55.495Z,25.10
2022-07-26T06:31:24.435Z,25.20
2022-07-26T06:33:53.136Z,25.30
2022-07-26T06:36:22.948Z,25.40
2022-07-26T06:38:55.016Z,25.60
2022-07-26T06:41:23.534Z,25.70
2022-07-26T06:43:51.992Z,25.80
2022-07-26T06:46:22.838Z,25.90
2022-07-26T06:48:53.032Z,25.90
2022-07-26T06:51:25.602Z,26.00
2022-07-26T06:53:54.211Z,26.10
2022-07-26T06:56:22.693Z,26.20
2022-07-26T06:58:55.284Z,26.20
2022-07-26T07:01:58.272Z,26.20
2022-07-26T07:04:13.739Z,26.10
2022-07-26T07:06:42.546Z,26.20
2022-07-26T07:09:13.569Z,26.20
2022-07-26T07:11:44.902Z,25.90
2022-07-26T07:14:13.689Z,25.90
2022-07-26T07:16:43.655Z,26.10
2022-07-26T07:19:25.059Z,26.20
2022-07-26T07:21:53.903Z,26.30
2022-07-26T07:24:23.539Z,26.50
2022-07-26T07:26:52.220Z,26.50
2022-07-26T07:29:21.288Z,26.70
2022-07-26T07:31:51.709Z,26.80
2022-07-26T07:34:37.016Z,26.90
2022-07-26T07:37:05.784Z,26.90
2022-07-26T07:39:42.154Z,27.00
2022-07-26T07:42:15.730Z,27.10
2022-07-26T07:44:45.027Z,27.10
2022-07-26T07:47:15.512Z,27.10
2022-07-26T07:49:44.362Z,27.10
2022-07-26T07:52:12.862Z,27.20
2022-07-26T07:54:42.224Z,27.30
2022-07-26T07:57:11.477Z,27.50
2022-07-26T07:59:42.783Z,27.60
2022-07-26T08:02:12.846Z,27.60
2022-07-26T08:04:42.945Z,27.60
2022-07-26T08:07:13.592Z,27.80
2022-07-26T08:09:43.390Z,27.60
2022-07-26T08:12:12.391Z,27.60
2022-07-26T08:14:41.579Z,27.70
2022-07-26T08:17:10.319Z,28.00
2022-07-26T08:19:41.981Z,28.30
2022-07-26T08:22:12.710Z,28.50
2022-07-26T08:24:41.955Z,28.70
2022-07-26T08:27:10.469Z,28.70
2022-07-26T08:29:39.042Z,28.80
2022-07-26T08:32:32.762Z,29.00
2022-07-26T08:35:16.806Z,29.10
2022-07-26T08:37:47.974Z,29.40
2022-07-26T08:40:16.703Z,29.60
2022-07-26T08:42:52.745Z,29.80
2022-07-26T08:45:25.021Z,30.00
2022-07-26T08:48:16.667Z,30.10
2022-07-26T08:50:43.332Z,30.10
2022-07-26T08:53:14.411Z,30.20
2022-07-26T08:56:06.534Z,30.20
2022-07-26T08:58:36.319Z,30.30
2022-07-26T09:01:12.865Z,30.20
2022-07-26T09:03:43.142Z,30.20
2022-07-26T09:06:17.778Z,30.30
2022-07-26T09:08:50.005Z,30.20
2022-07-26T09:11:33.492Z,30.20
2022-07-26T09:14:04.545Z,30.20
2022-07-26T09:16:39.186Z,30.30
2022-07-26T09:19:19.317Z,30.30
2022-07-26T09:21:47.928Z,30.50
2022-07-26T09:24:33.440Z,30.60
2022-07-26T09:27:04.237Z,30.80
2022-07-26T09:29:43.834Z,30.90
2022-07-26T09:32:18.378Z,31.00
2022-07-26T09:34:53.733Z,31.20
2022-07-26T09:37:36.623Z,31.50
2022-07-26T09:40:10.048Z,31.50
2022-07-26T09:42:39.646Z,31.40
2022-07-26T09:45:18.586Z,31.30
2022-07-26T09:47:47.131Z,31.20
2022-07-26T09:50:18.870Z,31.30
2022-07-26T09:53:08.575Z,31.50
2022-07-26T09:55:56.950Z,31.50
2022-07-26T09:58:26.665Z,31.40
2022-07-26T10:01:00.460Z,31.20
2022-07-26T10:03:32.158Z,31.10
2022-07-26T10:06:02.356Z,31.20
2022-07-26T10:08:32.504Z,31.40
2022-07-26T10:11:09.429Z,31.70
2022-07-26T10:13:38.780Z,31.90
2022-07-26T10:16:08.078Z,32.10
2022-07-26T10:18:47.465Z,32.30
2022-07-26T10:21:27.722Z,32.50
2022-07-26T10:23:58.819Z,32.70
2022-07-26T10:26:45.521Z,32.80
2022-07-26T10:29:29.503Z,32.80
2022-07-26T10:32:20.345Z,32.80
2022-07-26T10:34:49.574Z,32.90
2022-07-26T10:37:29.751Z,33.00
2022-07-26T10:40:25.687Z,33.10
2022-07-26T10:43:39.700Z,33.00
2022-07-26T10:46:25.128Z,32.90
2022-07-26T10:48:58.489Z,33.00
2022-07-26T10:51:29.647Z,33.00
2022-07-26T10:54:02.715Z,32.80
2022-07-26T10:56:33.601Z,32.80
2022-07-26T10:59:04.499Z,32.70
2022-07-26T11:01:40.795Z,32.80
2022-07-26T11:04:20.543Z,33.00
2022-07-26T11:06:50.044Z,33.10
2022-07-26T11:09:21.046Z,33.30
2022-07-26T11:11:52.516Z,33.50
2022-07-26T11:14:22.551Z,33.60
2022-07-26T11:16:51.893Z,33.60
2022-07-26T11:19:22.348Z,33.50
2022-07-26T11:21:57.177Z,33.40
2022-07-26T11:24:26.856Z,33.40
2022-07-26T11:26:56.636Z,33.40
2022-07-26T11:29:38.216Z,33.40
2022-07-26T11:32:18.540Z,33.60
2022-07-26T11:34:48.817Z,33.70
2022-07-26T11:37:17.366Z,33.60
2022-07-26T11:39:48.125Z,33.50
2022-07-26T11:42:19.749Z,33.50
2022-07-26T11:44:51.342Z,33.60
2022-07-26T11:47:24.184Z,33.50
2022-07-26T11:52:44.465Z,33.40
2022-07-26T11:55:12.994Z,33.60
2022-07-26T11:57:41.813Z,33.80
2022-07-26T12:00:14.400Z,33.90
2022-07-26T12:02:43.193Z,34.00
2022-07-26T12:05:18.696Z,33.90
2022-07-26T12:08:03.025Z,33.80
2022-07-26T12:10:31.931Z,33.90
2022-07-26T12:13:12.759Z,34.00
2022-07-26T12:16:07.964Z,34.20
2022-07-26T12:18:36.726Z,34.30
2022-07-26T12:21:09.330Z,34.40
2022-07-26T12:23:48.164Z,34.50
2022-07-26T12:26:22.684Z,34.60
2022-07-26T12:28:51.355Z,34.60
2022-07-26T12:31:30.462Z,34.70
2022-07-26T12:34:00.015Z,34.70
2022-07-26T12:36:30.169Z,34.70
2022-07-26T12:39:01.170Z,34.70
2022-07-26T12:41:38.384Z,34.70
2022-07-26T12:44:08.554Z,34.60
2022-07-26T12:46:39.075Z,34.40
2022-07-26T12:49:07.665Z,34.40
2022-07-26T12:51:41.380Z,34.40
2022-07-26T12:54:10.546Z,34.40
2022-07-26T12:56:39.251Z,34.30
2022-07-26T12:59:07.926Z,34.30
2022-07-26T13:01:36.684Z,34.30
2022-07-26T13:04:06.911Z,34.30
2022-07-26T13:06:35.526Z,34.30
2022-07-26T13:09:04.082Z,34.50
2022-07-26T13:11:33.554Z,34.60
2022-07-26T13:14:02.579Z,34.70
2022-07-26T13:16:31.089Z,34.80
2022-07-26T13:18:59.692Z,34.80
2022-07-26T13:21:33.556Z,34.80
2022-07-26T13:24:02.725Z,34.70
2022-07-26T13:26:31.214Z,34.60
2022-07-26T13:28:59.892Z,34.70
2022-07-26T13:31:28.615Z,34.80
2022-07-26T13:33:57.159Z,34.80
2022-07-26T13:36:25.719Z,34.80
2022-07-26T13:38:55.931Z,34.90
2022-07-26T13:41:24.575Z,34.90
2022-07-26T13:43:54.141Z,34.90
2022-07-26T13:46:23.933Z,34.80
2022-07-26T13:49:00.456Z,34.80
2022-07-26T13:51:49.761Z,34.70
2022-07-26T13:54:22.079Z,34.60
2022-07-26T13:56:51.383Z,34.40
2022-07-26T13:59:20.573Z,34.40
2022-07-26T14:01:49.146Z,34.50
2022-07-26T14:04:18.086Z,34.50
2022-07-26T14:06:46.866Z,34.60
2022-07-26T14:09:16.530Z,34.60
2022-07-26T14:11:46.905Z,34.60
2022-07-26T14:14:15.828Z,34.60
2022-07-26T14:16:48.043Z,34.70
2022-07-26T14:19:18.099Z,34.70
2022-07-26T14:21:58.863Z,34.70
2022-07-26T14:24:29.252Z,34.70
2022-07-26T14:27:00.243Z,34.80
2022-07-26T14:29:31.576Z,34.80
2022-07-26T14:32:21.339Z,34.70
2022-07-26T14:34:50.904Z,34.70
2022-07-26T14:37:44.192Z,34.60
2022-07-26T14:40:09.916Z,34.40
2022-07-26T14:42:39.880Z,34.20
2022-07-26T14:45:11.291Z,34.20
2022-07-26T14:47:40.083Z,34.10
2022-07-26T14:50:53.034Z,34.10
2022-07-26T14:53:22.593Z,34.20
2022-07-26T14:55:51.124Z,34.00
2022-07-26T14:58:21.156Z,33.80
2022-07-26T15:00:52.124Z,33.90
2022-07-26T15:03:20.707Z,33.90
2022-07-26T15:05:49.226Z,33.80
2022-07-26T15:08:17.731Z,33.70
2022-07-26T15:10:46.415Z,33.70
2022-07-26T15:13:17.330Z,33.50
2022-07-26T15:15:47.587Z,33.40
2022-07-26T15:18:16.036Z,33.40
2022-07-26T15:20:44.674Z,33.40
2022-07-26T15:23:35.672Z,33.50
2022-07-26T15:26:04.316Z,33.50
2022-07-26T15:28:35.283Z,33.50
2022-07-26T15:31:05.290Z,33.30
2022-07-26T15:33:35.373Z,33.20
2022-07-26T15:36:06.107Z,33.20
2022-07-26T15:38:34.757Z,33.20
2022-07-26T15:41:03.337Z,33.20
2022-07-26T15:43:48.120Z,33.30
2022-07-26T15:46:31.077Z,33.30
2022-07-26T15:49:00.258Z,33.30
2022-07-26T15:51:29.123Z,33.30
2022-07-26T15:53:57.683Z,33.30
2022-07-26T15:56:26.193Z,33.40
2022-07-26T15:58:54.717Z,33.40
2022-07-26T16:01:23.500Z,33.40
2022-07-26T16:03:53.416Z,33.40
2022-07-26T16:06:23.140Z,33.40
2022-07-26T16:09:15.313Z,33.40
2022-07-26T16:11:40.204Z,33.40
2022-07-26T16:14:09.735Z,33.40
2022-07-26T16:16:38.362Z,33.30
2022-07-26T16:19:08.619Z,33.20
2022-07-26T16:21:37.912Z,33.00
2022-07-26T16:24:07.810Z,32.80
2022-07-26T16:26:36.961Z,32.50
2022-07-26T16:29:06.054Z,32.30
2022-07-26T16:31:34.855Z,32.20
2022-07-26T16:34:03.695Z,32.00
2022-07-26T16:36:34.310Z,31.90
2022-07-26T16:39:02.922Z,31.90
2022-07-26T16:41:32.010Z,31.90
2022-07-26T16:44:00.600Z,31.90
2022-07-26T16:46:29.188Z,31.80
2022-07-26T16:48:57.809Z,31.80
2022-07-26T16:51:27.189Z,31.80
2022-07-26T16:53:57.085Z,31.70
2022-07-26T16:56:25.613Z,31.60
2022-07-26T16:58:54.173Z,31.40
2022-07-26T17:01:22.753Z,31.30
2022-07-26T17:03:51.425Z,31.20
2022-07-26T17:06:20.092Z,31.10
2022-07-26T17:08:48.609Z,31.00
2022-07-26T17:11:18.529Z,30.90
2022-07-26T17:13:47.083Z,30.80
2022-07-26T17:16:15.712Z,30.70
2022-07-26T17:18:53.474Z,30.70
2022-07-26T17:21:22.236Z,30.50
2022-07-26T17:23:51.505Z,30.30
2022-07-26T17:26:22.096Z,30.20
2022-07-26T17:28:50.577Z,30.00
2022-07-26T17:31:19.164Z,29.80
2022-07-26T17:33:47.753Z,29.60
2022-07-26T17:36:43.018Z,29.50
2022-07-26T17:39:14.916Z,29.40
2022-07-26T17:41:49.562Z,29.10
2022-07-26T17:44:18.279Z,28.90
2022-07-26T17:46:46.793Z,28.70
2022-07-26T17:49:16.105Z,28.60
2022-07-26T17:51:45.959Z,28.40
2022-07-26T17:54:14.459Z,28.40
2022-07-26T17:56:42.937Z,28.30
2022-07-26T17:59:14.233Z,28.10
2022-07-26T18:01:53.828Z,28.00
2022-07-26T18:04:56.901Z,27.80
2022-07-26T18:07:25.678Z,27.60
2022-07-26T18:09:57.795Z,27.30
2022-07-26T18:12:26.362Z,27.10
2022-07-26T18:15:01.230Z,27.00
2022-07-26T18:17:29.709Z,26.80
2022-07-26T18:19:58.200Z,26.60
2022-07-26T18:22:27.330Z,26.40
2022-07-26T18:24:55.870Z,26.30
2022-07-26T18:27:28.186Z,26.10
2022-07-26T18:29:57.831Z,26.10
2022-07-26T18:32:28.262Z,26.00
2022-07-26T18:34:56.839Z,25.90
2022-07-26T18:37:25.701Z,25.80
2022-07-26T18:39:57.776Z,25.70
2022-07-26T18:42:27.466Z,25.50
2022-07-26T18:44:56.022Z,25.40
2022-07-26T18:47:24.774Z,25.40
2022-07-26T18:49:54.795Z,25.40
2022-07-26T18:52:28.576Z,25.30
2022-07-26T18:55:07.259Z,25.30
2022-07-26T18:57:36.647Z,25.20
2022-07-26T19:00:08.067Z,25.10
2022-07-26T19:02:36.737Z,25.10
2022-07-26T19:05:07.762Z,25.10
2022-07-26T19:07:37.600Z,25.00
2022-07-26T19:10:08.373Z,24.90
2022-07-26T19:12:58.698Z,24.90
2022-07-26T19:15:27.519Z,24.80
2022-07-26T19:17:56.081Z,24.60
2022-07-26T19:20:26.034Z,24.60
2022-07-26T19:22:54.611Z,24.50
2022-07-26T19:25:23.154Z,24.40
2022-07-26T19:27:51.849Z,24.40
2022-07-26T19:30:20.303Z,24.20
2022-07-26T19:32:48.957Z,24.10
2022-07-26T19:35:17.492Z,24.00
2022-07-26T19:37:47.661Z,23.90
2022-07-26T19:40:16.425Z,23.80
2022-07-26T19:42:45.070Z,23.60
2022-07-26T19:45:14.136Z,23.50
2022-07-26T19:47:42.805Z,23.40
2022-07-26T19:50:12.050Z,23.30
2022-07-26T19:52:41.305Z,23.20
2022-07-26T19:55:11.657Z,23.10
2022-07-26T19:57:40.456Z,23.00
2022-07-26T20:00:12.253Z,23.00
2022-07-26T20:02:41.647Z,22.90
2022-07-26T20:05:11.778Z,23.00
2022-07-26T20:07:40.589Z,23.00
2022-07-26T20:10:11.155Z,22.90
2022-07-26T20:12:39.705Z,22.90
2022-07-26T20:15:09.610Z,22.80
2022-07-26T20:17:39.829Z,22.80
2022-07-26T20:20:12.030Z,22.80
2022-07-26T20:22:40.508Z,22.80
2022-07-26T20:25:11.203Z,22.80
2022-07-26T20:27:40.022Z,22.80
2022-07-26T20:30:10.664Z,22.70
2022-07-26T20:32:39.169Z,22.60
2022-07-26T20:35:08.789Z,22.50
2022-07-26T20:37:37.683Z,22.50
2022-07-26T20:40:09.312Z,22.40
2022-07-26T20:42:40.412Z,22.50
2022-07-26T20:45:13.000Z,22.40
2022-07-26T20:47:43.067Z,22.40
2022-07-26T20:50:13.202Z,22.40
2022-07-26T20:52:42.011Z,22.40
2022-07-26T20:55:12.197Z,22.30
2022-07-26T20:57:42.612Z,22.40
2022-07-26T21:00:12.989Z,22.40
2022-07-26T21:02:41.826Z,22.30
2022-07-26T21:05:12.014Z,22.20
2022-07-26T21:07:58.638Z,22.30
2022-07-26T21:10:29.142Z,22.30
2022-07-26T21:13:00.941Z,22.20
2022-07-26T21:15:29.779Z,22.00
2022-07-26T21:17:58.681Z,22.10
2022-07-26T21:20:27.300Z,22.00
2022-07-26T21:23:08.140Z,22.00
2022-07-26T21:25:44.540Z,22.00
2022-07-26T21:28:25.333Z,21.90
2022-07-26T21:30:54.212Z,21.90
2022-07-26T21:33:22.796Z,21.80
2022-07-26T21:35:51.318Z,21.80
2022-07-26T21:38:20.109Z,21.70
2022-07-26T21:40:48.757Z,21.70
2022-07-26T21:43:17.342Z,21.60
2022-07-26T21:45:47.265Z,21.60
2022-07-26T21:48:15.786Z,21.50
2022-07-26T21:50:46.518Z,21.50
2022-07-26T21:53:15.197Z,21.40
2022-07-26T21:55:44.087Z,21.40
2022-07-26T21:58:12.730Z,21.30
2022-07-26T22:00:41.379Z,21.20
2022-07-26T22:03:11.872Z,21.10
2022-07-26T22:05:42.614Z,21.00
2022-07-26T22:08:20.310Z,21.10
2022-07-26T22:10:49.152Z,21.00
2022-07-26T22:13:17.969Z,21.00
2022-07-26T22:15:47.846Z,20.90
2022-07-26T22:18:19.708Z,20.90
2022-07-26T22:20:49.846Z,20.80
2022-07-26T22:23:19.822Z,20.70
2022-07-26T22:25:48.296Z,20.70
2022-07-26T22:28:18.456Z,20.70
2022-07-26T22:30:47.739Z,20.70
2022-07-26T22:33:18.571Z,20.70
2022-07-26T22:35:47.324Z,20.70
2022-07-26T22:38:41.195Z,20.60
2022-07-26T22:41:09.786Z,20.60
2022-07-26T22:43:38.377Z,20.50
2022-07-26T22:46:06.930Z,20.50
2022-07-26T22:48:38.694Z,20.50
2022-07-26T22:51:07.908Z,20.50
2022-07-26T22:53:36.525Z,20.50
2022-07-26T22:56:05.301Z,20.50
2022-07-26T22:59:22.690Z,20.40
2022-07-26T23:01:51.248Z,20.40
2022-07-26T23:04:21.198Z,20.40
2022-07-26T23:06:49.940Z,20.40
2022-07-26T23:09:18.466Z,20.50
2022-07-26T23:11:47.173Z,20.50
2022-07-26T23:14:15.667Z,20.50
2022-07-26T23:16:44.344Z,20.50
2022-07-26T23:19:13.269Z,20.50
2022-07-26T23:21:43.622Z,20.50
2022-07-26T23:24:15.981Z,20.50
2022-07-26T23:26:44.628Z,20.50
2022-07-26T23:29:13.589Z,20.60
2022-07-26T23:31:43.469Z,20.60
2022-07-26T23:34:12.183Z,20.70
2022-07-26T23:36:42.340Z,20.60
2022-07-26T23:39:11.289Z,20.60
2022-07-26T23:41:40.647Z,20.60
2022-07-26T23:44:09.133Z,20.60
2022-07-26T23:46:37.932Z,20.60
2022-07-26T23:49:06.705Z,20.70
2022-07-26T23:51:35.383Z,20.70
2022-07-26T23:54:05.771Z,20.60
2022-07-26T23:56:34.462Z,20.60
2022-07-26T23:59:03.030Z,20.60
